Terminal Aerodrome Forecast
Issued by NWS Wichita, KS

Home | Current Version | Previous Version | Text Only | Print | Product List | Glossary On
Versions: 1 2 3 4 5 6 7 8 9 10 11 12 13 14 15 16 17 18 19 20 21
260
FTUS43 KICT 261345 AAA
TAFICT
TAF AMD
KICT 261345Z 2614/2712 04005KT P6SM SCT005 SCT015 BKN250
      TEMPO 2614/2616 BKN005
     FM261600 09007KT P6SM SCT040
     FM270000 12005KT P6SM SCT250=

USA.gov is the U.S. government's official web portal to all federal, state and local government web resources and services.